Time;durP1;ratioP1;P1;durP2;ratioP2;P2;SDS_P1;SDS_P2;PMS_P1;PMS_P2;Temp;Humidity;BMP_temperature;BMP_pressure;BME280_temperature;BME280_humidity;BME280_pressure;Samples;Min_cycle;Max_cycle;Signal;HPM_P1;HPM_P2
2023/08/19 00:01:04;;;;;;;2.10;2.00;;;29.20;68.30;;;;;;4861572;29;20810;-84
2023/08/19 00:03:35;;;;;;;2.23;2.13;;;29.20;68.10;;;;;;4861287;29;20458;-84
2023/08/19 00:06:06;;;;;;;2.20;2.03;;;29.20;68.10;;;;;;4861333;29;20451;-84
2023/08/19 00:08:35;;;;;;;2.20;2.10;;;29.20;68.10;;;;;;4859592;29;20488;-83
2023/08/19 00:11:03;;;;;;;2.37;2.27;;;29.20;68.10;;;;;;4861166;29;20446;-84
2023/08/19 00:13:32;;;;;;;2.30;2.20;;;29.20;68.00;;;;;;4854046;29;20493;-84
2023/08/19 00:16:00;;;;;;;2.20;2.10;;;29.20;68.10;;;;;;4857173;29;20459;-84
2023/08/19 00:18:29;;;;;;;2.20;2.10;;;29.20;68.10;;;;;;4856493;29;20482;-83
2023/08/19 00:20:58;;;;;;;2.17;2.07;;;29.20;68.10;;;;;;4860266;29;20950;-83
2023/08/19 00:23:26;;;;;;;2.20;2.10;;;29.20;68.00;;;;;;4858881;29;20535;-83
2023/08/19 00:25:55;;;;;;;2.37;2.20;;;29.20;68.00;;;;;;4860968;29;20520;-83
2023/08/19 00:28:23;;;;;;;2.50;2.40;;;29.20;68.00;;;;;;4860777;29;20489;-83
2023/08/19 00:30:51;;;;;;;2.50;2.30;;;29.20;67.90;;;;;;4860899;29;20447;-83
2023/08/19 00:33:19;;;;;;;2.77;2.60;;;29.20;67.90;;;;;;4860344;29;20459;-83
2023/08/19 00:35:51;;;;;;;3.00;2.80;;;29.20;67.80;;;;;;4866683;29;20896;-84
2023/08/19 00:38:22;;;;;;;2.23;2.13;;;29.20;67.90;;;;;;4858575;29;20600;-84
2023/08/19 00:40:50;;;;;;;2.50;2.30;;;29.20;67.90;;;;;;4860816;29;20466;-84
2023/08/19 00:43:18;;;;;;;2.00;1.90;;;29.20;68.00;;;;;;4849609;29;20539;-84
2023/08/19 00:45:48;;;;;;;2.60;2.50;;;29.20;67.70;;;;;;4858882;29;20475;-83
2023/08/19 00:48:19;;;;;;;2.30;2.20;;;29.20;67.70;;;;;;4854860;29;20527;-83
2023/08/19 00:50:48;;;;;;;2.70;2.50;;;29.30;67.60;;;;;;4859728;29;20449;-84
2023/08/19 00:53:16;;;;;;;2.60;2.40;;;29.30;67.50;;;;;;4859662;29;20444;-83
2023/08/19 00:55:46;;;;;;;2.23;2.13;;;29.30;67.50;;;;;;4860675;29;20495;-83
2023/08/19 00:58:14;;;;;;;2.37;2.27;;;29.30;67.50;;;;;;4852236;29;20490;-83
2023/08/19 01:00:43;;;;;;;2.47;2.37;;;29.30;67.40;;;;;;4843285;29;20484;-83
2023/08/19 01:03:12;;;;;;;3.00;2.77;;;29.30;67.50;;;;;;4841823;29;20467;-83
2023/08/19 01:05:50;;;;;;;2.10;2.00;;;29.30;67.40;;;;;;4859987;29;20455;-84
2023/08/19 01:08:23;;;;;;;2.37;2.27;;;29.30;67.50;;;;;;4859447;29;20445;-84
2023/08/19 01:11:01;;;;;;;2.00;1.90;;;29.30;67.50;;;;;;4854096;29;20472;-83
2023/08/19 01:13:37;;;;;;;2.50;2.40;;;29.30;67.50;;;;;;4873896;29;20456;-84
2023/08/19 01:16:11;;;;;;;2.90;2.70;;;29.30;67.50;;;;;;4853454;29;21003;-83
2023/08/19 01:18:41;;;;;;;2.13;2.03;;;29.30;67.50;;;;;;4845002;29;20490;-83
2023/08/19 01:21:09;;;;;;;2.63;2.50;;;29.30;67.50;;;;;;4854589;29;20607;-84
2023/08/19 01:23:42;;;;;;;2.10;2.00;;;29.30;67.50;;;;;;4843471;29;20472;-84
2023/08/19 01:26:11;;;;;;;2.70;2.50;;;29.30;67.50;;;;;;4860064;29;20530;-83
2023/08/19 01:28:40;;;;;;;2.30;2.20;;;29.20;67.60;;;;;;4853690;29;20497;-83
2023/08/19 01:31:08;;;;;;;2.50;2.40;;;29.20;67.60;;;;;;4858684;29;20533;-84
2023/08/19 01:33:37;;;;;;;2.50;2.30;;;29.20;67.50;;;;;;4853637;29;20469;-83
2023/08/19 01:36:12;;;;;;;3.00;2.80;;;29.20;67.50;;;;;;4853011;29;20704;-83
2023/08/19 01:38:45;;;;;;;3.07;2.87;;;29.20;67.60;;;;;;4841337;29;20504;-84
2023/08/19 01:41:16;;;;;;;2.13;2.03;;;29.20;67.60;;;;;;4874140;29;20858;-83
2023/08/19 01:43:46;;;;;;;2.43;2.30;;;29.20;67.60;;;;;;4852868;29;20468;-83
2023/08/19 01:46:14;;;;;;;2.90;2.70;;;29.20;67.70;;;;;;4859258;29;20513;-84
2023/08/19 01:48:42;;;;;;;2.97;2.77;;;29.20;67.60;;;;;;4848361;29;21036;-84
2023/08/19 01:51:10;;;;;;;2.40;2.30;;;29.20;67.70;;;;;;4841183;29;20586;-84
2023/08/19 01:53:39;;;;;;;2.40;2.30;;;29.20;67.80;;;;;;4854346;29;20468;-84
2023/08/19 01:56:07;;;;;;;2.50;2.40;;;29.20;67.80;;;;;;4854095;29;20449;-84
2023/08/19 01:58:36;;;;;;;2.53;2.33;;;29.20;67.80;;;;;;4857838;29;20832;-83
2023/08/19 02:01:06;;;;;;;3.00;2.80;;;29.20;67.80;;;;;;4852108;29;20869;-83
2023/08/19 02:03:34;;;;;;;2.60;2.50;;;29.20;67.70;;;;;;4858470;29;20474;-83
2023/08/19 02:06:03;;;;;;;2.50;2.40;;;29.10;67.80;;;;;;4859065;29;20451;-83
2023/08/19 02:08:31;;;;;;;3.30;2.60;;;29.10;67.80;;;;;;4873232;29;20462;-83
2023/08/19 02:11:01;;;;;;;3.03;2.83;;;29.10;67.90;;;;;;4858066;29;20543;-83
2023/08/19 02:13:30;;;;;;;3.13;2.93;;;29.10;67.90;;;;;;4846923;29;20468;-83
2023/08/19 02:15:59;;;;;;;2.37;2.27;;;29.10;67.80;;;;;;4858107;29;20522;-83
2023/08/19 02:18:29;;;;;;;3.03;2.70;;;29.10;67.90;;;;;;4850056;29;20479;-84
2023/08/19 02:20:57;;;;;;;2.90;2.70;;;29.10;67.90;;;;;;4842636;29;20480;-84
2023/08/19 02:23:25;;;;;;;3.33;3.13;;;29.10;67.90;;;;;;4840428;29;20443;-83
2023/08/19 02:25:53;;;;;;;3.13;2.93;;;29.10;67.80;;;;;;4851216;29;20462;-83
2023/08/19 02:28:21;;;;;;;2.80;2.60;;;29.10;67.90;;;;;;4857235;29;20498;-83
2023/08/19 02:30:50;;;;;;;2.47;2.37;;;29.10;68.00;;;;;;4859796;29;20440;-84
2023/08/19 02:33:19;;;;;;;3.47;3.17;;;29.10;67.90;;;;;;4857627;29;20513;-84
2023/08/19 02:35:51;;;;;;;2.60;2.40;;;29.00;68.00;;;;;;4854729;29;20458;-83
2023/08/19 02:38:20;;;;;;;2.57;2.37;;;29.00;68.00;;;;;;4840098;29;20440;-83
2023/08/19 02:40:51;;;;;;;3.53;3.33;;;29.00;67.90;;;;;;4849832;29;20489;-83
2023/08/19 02:43:20;;;;;;;3.07;2.87;;;29.00;68.00;;;;;;4843794;29;20468;-84
2023/08/19 02:45:48;;;;;;;2.80;2.60;;;29.00;68.00;;;;;;4848973;29;20455;-84
2023/08/19 02:48:16;;;;;;;2.90;2.70;;;29.00;68.00;;;;;;4853620;29;21061;-83
2023/08/19 02:50:46;;;;;;;2.73;2.60;;;29.00;68.00;;;;;;4853837;29;20474;-83
2023/08/19 02:53:14;;;;;;;2.80;2.60;;;29.00;68.00;;;;;;4848732;29;20551;-83
2023/08/19 02:55:43;;;;;;;3.03;2.83;;;29.00;68.00;;;;;;4855166;29;20511;-83
2023/08/19 02:58:13;;;;;;;3.00;2.80;;;29.00;68.00;;;;;;4861075;29;20475;-83
2023/08/19 03:00:41;;;;;;;3.50;3.20;;;29.00;68.10;;;;;;4861273;29;20519;-83
2023/08/19 03:03:10;;;;;;;3.10;2.80;;;29.00;68.10;;;;;;4862192;29;20451;-83
2023/08/19 03:05:39;;;;;;;2.47;2.37;;;29.00;68.10;;;;;;4862844;29;20459;-83
2023/08/19 03:08:10;;;;;;;3.47;3.17;;;29.00;68.10;;;;;;4860145;29;20469;-83
2023/08/19 03:10:41;;;;;;;3.50;3.10;;;29.00;68.10;;;;;;4862453;29;20452;-83
2023/08/19 03:13:09;;;;;;;2.73;2.57;;;28.90;68.10;;;;;;4861795;29;20450;-86
2023/08/19 03:15:39;;;;;;;2.40;2.30;;;28.90;68.10;;;;;;4855476;29;20479;-83
2023/08/19 03:18:07;;;;;;;2.90;2.70;;;28.90;68.20;;;;;;4861852;29;20440;-83
2023/08/19 03:20:35;;;;;;;2.60;2.50;;;28.90;68.10;;;;;;4855887;29;20487;-83
2023/08/19 03:23:04;;;;;;;3.00;2.80;;;28.90;68.20;;;;;;4861656;29;20431;-83
2023/08/19 03:25:33;;;;;;;2.43;2.23;;;28.90;68.20;;;;;;4862571;29;20482;-83
2023/08/19 03:28:02;;;;;;;2.93;2.73;;;28.90;68.20;;;;;;4860362;29;20810;-83
2023/08/19 03:30:30;;;;;;;2.67;2.57;;;28.90;68.20;;;;;;4862160;29;20457;-84
2023/08/19 03:32:59;;;;;;;3.17;2.97;;;28.90;68.20;;;;;;4862035;29;20448;-84
2023/08/19 03:35:27;;;;;;;2.40;2.30;;;28.90;68.20;;;;;;4861967;29;20471;-84
2023/08/19 03:37:56;;;;;;;2.80;2.60;;;28.90;68.20;;;;;;4842464;29;20440;-83
2023/08/19 03:40:24;;;;;;;3.23;3.03;;;28.90;68.30;;;;;;4853044;29;20481;-83
2023/08/19 03:42:53;;;;;;;3.57;3.37;;;28.90;68.30;;;;;;4855633;29;21210;-83
2023/08/19 03:45:21;;;;;;;2.93;2.73;;;28.90;68.30;;;;;;4858410;29;20680;-83
2023/08/19 03:47:50;;;;;;;3.20;3.00;;;28.90;68.30;;;;;;4857405;29;20490;-84
2023/08/19 03:50:18;;;;;;;2.63;2.53;;;28.80;68.30;;;;;;4861049;29;20570;-83
2023/08/19 03:52:46;;;;;;;2.93;2.73;;;28.80;68.30;;;;;;4856629;29;20532;-85
2023/08/19 03:55:15;;;;;;;3.10;2.90;;;28.80;68.30;;;;;;4860678;29;20489;-83
2023/08/19 03:57:43;;;;;;;3.20;3.00;;;28.80;68.30;;;;;;4861394;29;20942;-83
2023/08/19 04:00:13;;;;;;;2.63;2.53;;;28.80;68.30;;;;;;4860643;29;20487;-84
2023/08/19 04:02:41;;;;;;;2.87;2.67;;;28.80;68.30;;;;;;4861511;29;20948;-83
2023/08/19 04:05:11;;;;;;;3.10;2.90;;;28.80;68.30;;;;;;4875359;29;20460;-84
2023/08/19 04:07:40;;;;;;;2.60;2.50;;;28.80;68.30;;;;;;4860034;29;20937;-84
2023/08/19 04:10:09;;;;;;;2.50;2.30;;;28.80;68.40;;;;;;4859898;29;20478;-83
2023/08/19 04:12:37;;;;;;;2.80;2.60;;;28.80;68.40;;;;;;4853887;29;20468;-83
2023/08/19 04:15:08;;;;;;;2.63;2.43;;;28.80;68.40;;;;;;4860210;29;20541;-83
2023/08/19 04:17:38;;;;;;;3.10;2.90;;;28.80;68.40;;;;;;4870127;29;20484;-83
2023/08/19 04:20:09;;;;;;;3.00;2.80;;;28.80;68.40;;;;;;4861223;29;20471;-83
2023/08/19 04:22:38;;;;;;;3.10;2.90;;;28.80;68.40;;;;;;4859713;29;20471;-83
2023/08/19 04:25:06;;;;;;;2.50;2.40;;;28.80;68.40;;;;;;4860847;29;20464;-83
2023/08/19 04:27:35;;;;;;;3.67;3.43;;;28.80;68.40;;;;;;4861301;29;20450;-83
2023/08/19 04:30:05;;;;;;;2.70;2.53;;;28.80;68.40;;;;;;4875116;29;20503;-83
2023/08/19 04:32:34;;;;;;;2.90;2.70;;;28.70;68.40;;;;;;4859367;29;20463;-83
2023/08/19 04:35:05;;;;;;;2.77;2.57;;;28.70;68.50;;;;;;4861034;29;20452;-84
2023/08/19 04:37:33;;;;;;;2.80;2.70;;;28.70;68.50;;;;;;4860297;29;20461;-83
2023/08/19 04:40:05;;;;;;;2.60;2.40;;;28.70;68.50;;;;;;4857516;29;20868;-84
2023/08/19 04:42:37;;;;;;;3.20;3.00;;;28.70;68.50;;;;;;4858779;29;20475;-83
2023/08/19 04:45:09;;;;;;;2.73;2.63;;;28.70;68.50;;;;;;4858816;29;20539;-83
2023/08/19 04:47:41;;;;;;;3.13;2.93;;;28.70;68.50;;;;;;4849779;29;20463;-83
2023/08/19 04:50:11;;;;;;;3.00;2.80;;;28.70;68.50;;;;;;4849017;29;21058;-84
2023/08/19 04:52:39;;;;;;;2.43;2.33;;;28.70;68.50;;;;;;4841095;29;20500;-83
2023/08/19 04:55:09;;;;;;;3.30;3.10;;;28.70;68.50;;;;;;4859088;29;20555;-83
2023/08/19 04:57:38;;;;;;;3.00;2.87;;;28.70;68.50;;;;;;4859166;29;20465;-83
2023/08/19 05:00:12;;;;;;;3.07;2.87;;;28.70;68.50;;;;;;4859638;29;20463;-83
2023/08/19 05:02:41;;;;;;;3.00;2.80;;;28.70;68.60;;;;;;4850784;29;20587;-84
2023/08/19 05:05:11;;;;;;;2.70;2.50;;;28.70;68.60;;;;;;4844466;29;20480;-83
2023/08/19 05:07:39;;;;;;;3.40;3.10;;;28.70;68.60;;;;;;4844229;29;20554;-83
2023/08/19 05:10:09;;;;;;;3.00;2.80;;;28.70;68.60;;;;;;4856675;29;20472;-84
2023/08/19 05:12:38;;;;;;;2.80;2.60;;;28.70;68.60;;;;;;4860160;29;20546;-83
2023/08/19 05:15:10;;;;;;;3.03;2.83;;;28.70;68.60;;;;;;4860253;29;20478;-83
2023/08/19 05:17:38;;;;;;;3.27;3.07;;;28.70;68.60;;;;;;4858615;29;20486;-83
2023/08/19 05:20:08;;;;;;;2.83;2.70;;;28.70;68.60;;;;;;4845423;29;20483;-83
2023/08/19 05:22:37;;;;;;;2.90;2.70;;;28.60;68.60;;;;;;4853135;29;20488;-83
2023/08/19 05:25:08;;;;;;;3.07;2.73;;;28.60;68.60;;;;;;4852738;29;20484;-83
2023/08/19 05:27:36;;;;;;;2.80;2.70;;;28.60;68.60;;;;;;4874487;29;20468;-83
2023/08/19 05:30:07;;;;;;;3.07;2.87;;;28.60;68.60;;;;;;4858170;29;20981;-84
2023/08/19 05:32:35;;;;;;;2.83;2.70;;;28.70;68.60;;;;;;4859371;29;20465;-83
2023/08/19 05:35:04;;;;;;;3.30;3.10;;;28.70;68.60;;;;;;4859673;29;20534;-83
2023/08/19 05:37:32;;;;;;;2.70;2.60;;;28.70;68.60;;;;;;4857955;29;21157;-84
2023/08/19 05:40:03;;;;;;;3.20;3.00;;;28.70;68.60;;;;;;4848688;29;20527;-84
2023/08/19 05:42:31;;;;;;;2.30;2.20;;;28.70;68.60;;;;;;4840911;29;20483;-84
2023/08/19 05:45:00;;;;;;;2.83;2.63;;;28.70;68.60;;;;;;4853146;29;20579;-83
2023/08/19 05:47:29;;;;;;;2.93;2.70;;;28.70;68.60;;;;;;4859805;29;21123;-84
2023/08/19 05:49:57;;;;;;;3.23;3.03;;;28.70;68.60;;;;;;4859888;29;20450;-83
2023/08/19 05:52:25;;;;;;;3.10;2.90;;;28.70;68.60;;;;;;4848538;29;20479;-83
2023/08/19 05:54:55;;;;;;;3.20;3.00;;;28.70;68.60;;;;;;4845350;29;20465;-84
2023/08/19 05:57:25;;;;;;;2.83;2.73;;;28.70;68.60;;;;;;4853435;29;20463;-84
2023/08/19 05:59:53;;;;;;;3.27;3.07;;;28.70;68.60;;;;;;4859566;29;20459;-83
2023/08/19 06:02:21;;;;;;;3.03;2.83;;;28.70;68.60;;;;;;4853396;29;20517;-84
2023/08/19 06:04:49;;;;;;;2.90;2.70;;;28.70;68.60;;;;;;4859270;29;21023;-83
2023/08/19 06:07:25;;;;;;;3.50;3.27;;;28.70;68.50;;;;;;4852620;29;20473;-83
2023/08/19 06:09:53;;;;;;;3.47;3.27;;;28.70;68.50;;;;;;4859416;29;20455;-83
2023/08/19 06:12:22;;;;;;;2.80;2.60;;;28.70;68.50;;;;;;4853611;29;20949;-84
2023/08/19 06:14:51;;;;;;;3.10;2.90;;;28.70;68.50;;;;;;4844867;29;20480;-83
2023/08/19 06:17:19;;;;;;;2.30;2.20;;;28.70;68.50;;;;;;4852309;29;20479;-83
2023/08/19 06:19:48;;;;;;;3.03;2.83;;;28.70;68.50;;;;;;4855400;29;20459;-83
2023/08/19 06:22:16;;;;;;;3.83;3.63;;;28.70;68.50;;;;;;4858579;29;20509;-85
2023/08/19 06:24:44;;;;;;;3.43;3.23;;;28.70;68.50;;;;;;4859393;29;20436;-83
2023/08/19 06:27:12;;;;;;;2.87;2.70;;;28.70;68.50;;;;;;4858696;29;20442;-83
2023/08/19 06:29:40;;;;;;;3.10;2.90;;;28.70;68.50;;;;;;4859158;29;21427;-84
2023/08/19 06:32:12;;;;;;;3.03;2.83;;;28.70;68.40;;;;;;4859417;29;20928;-83
2023/08/19 06:34:41;;;;;;;3.20;3.00;;;28.70;68.40;;;;;;4859226;29;20450;-84
2023/08/19 06:37:12;;;;;;;3.20;3.00;;;28.70;68.40;;;;;;4873474;29;20462;-83
2023/08/19 06:39:48;;;;;;;3.10;2.90;;;28.70;68.40;;;;;;4865259;29;21427;-83
2023/08/19 06:42:19;;;;;;;2.90;2.80;;;28.70;68.40;;;;;;4844150;29;20487;-84
2023/08/19 06:44:50;;;;;;;3.10;2.90;;;28.70;68.40;;;;;;4852188;29;20459;-84
2023/08/19 06:47:23;;;;;;;2.47;2.37;;;28.70;68.40;;;;;;4857881;29;20473;-83
2023/08/19 06:49:52;;;;;;;3.50;3.30;;;28.70;68.40;;;;;;4857853;29;20897;-84
2023/08/19 06:52:22;;;;;;;2.93;2.73;;;28.70;68.40;;;;;;4858559;29;20462;-83
2023/08/19 06:54:51;;;;;;;2.73;2.57;;;28.80;68.40;;;;;;4857835;29;20474;-83
2023/08/19 06:57:26;;;;;;;3.73;3.53;;;28.80;68.40;;;;;;4858991;29;20543;-83
2023/08/19 07:00:00;;;;;;;3.00;2.80;;;28.80;68.40;;;;;;4859548;29;20470;-83
2023/08/19 07:02:31;;;;;;;3.00;2.80;;;28.80;68.30;;;;;;4858521;29;20474;-84
2023/08/19 07:05:02;;;;;;;3.00;2.80;;;28.80;68.30;;;;;;4858898;29;20523;-83
2023/08/19 07:07:32;;;;;;;2.63;2.43;;;28.80;68.30;;;;;;4858386;29;21015;-84
2023/08/19 07:10:01;;;;;;;2.80;2.70;;;28.80;68.30;;;;;;4852889;29;21081;-84
2023/08/19 07:12:29;;;;;;;2.90;2.70;;;28.80;68.30;;;;;;4858980;29;20438;-84
2023/08/19 07:14:58;;;;;;;3.30;3.10;;;28.80;68.30;;;;;;4848528;29;20468;-84
2023/08/19 07:17:30;;;;;;;3.00;2.80;;;28.80;68.30;;;;;;4853288;29;21023;-83
2023/08/19 07:19:59;;;;;;;2.60;2.50;;;28.80;68.30;;;;;;4849148;29;20463;-83
2023/08/19 07:22:29;;;;;;;2.63;2.53;;;28.80;68.30;;;;;;4858280;29;20508;-85
2023/08/19 07:24:57;;;;;;;3.10;2.90;;;28.80;68.30;;;;;;4859077;29;20465;-83
2023/08/19 07:27:26;;;;;;;2.50;2.40;;;28.80;68.30;;;;;;4858363;29;20496;-83
2023/08/19 07:29:55;;;;;;;3.10;2.90;;;28.80;68.30;;;;;;4859104;29;20500;-83
2023/08/19 07:32:24;;;;;;;3.20;3.00;;;28.90;68.30;;;;;;4858478;29;20469;-83
2023/08/19 07:34:54;;;;;;;2.90;2.80;;;28.80;68.30;;;;;;4858941;29;20447;-84
2023/08/19 07:37:23;;;;;;;3.10;2.90;;;28.80;68.30;;;;;;4857893;29;20885;-84
2023/08/19 07:39:53;;;;;;;2.63;2.53;;;28.80;68.30;;;;;;4854005;29;20603;-84
2023/08/19 07:42:21;;;;;;;3.00;2.80;;;28.90;68.30;;;;;;4846064;29;20487;-84
2023/08/19 07:44:49;;;;;;;3.43;3.23;;;28.90;68.30;;;;;;4844169;29;20925;-83
2023/08/19 07:47:18;;;;;;;3.03;2.83;;;28.90;68.20;;;;;;4849601;29;20550;-83
2023/08/19 07:49:46;;;;;;;2.97;2.77;;;28.90;68.20;;;;;;4843408;29;20450;-82
2023/08/19 07:52:16;;;;;;;2.80;2.60;;;28.90;68.30;;;;;;4851591;29;20446;-84
2023/08/19 07:54:44;;;;;;;2.93;2.73;;;28.90;68.30;;;;;;4861612;29;20507;-82
2023/08/19 07:57:15;;;;;;;2.93;2.77;;;28.90;68.30;;;;;;4861726;29;20445;-82
2023/08/19 07:59:43;;;;;;;2.90;2.70;;;28.90;68.20;;;;;;4860120;29;20466;-83
2023/08/19 08:02:11;;;;;;;3.50;3.17;;;28.90;68.30;;;;;;4861359;29;20494;-84
2023/08/19 08:04:40;;;;;;;3.00;2.70;;;28.90;68.40;;;;;;4862214;29;20436;-83
2023/08/19 08:07:08;;;;;;;3.17;2.97;;;28.90;68.40;;;;;;4860601;29;20440;-82
2023/08/19 08:09:39;;;;;;;3.20;3.00;;;28.90;68.40;;;;;;4848510;29;20460;-83
2023/08/19 08:12:07;;;;;;;3.00;2.80;;;28.90;68.30;;;;;;4844547;29;20594;-83
2023/08/19 08:14:36;;;;;;;3.10;2.90;;;28.90;68.20;;;;;;4850750;29;20469;-84
2023/08/19 08:17:04;;;;;;;2.90;2.70;;;28.90;68.40;;;;;;4857891;29;20448;-83
2023/08/19 08:19:32;;;;;;;2.80;2.60;;;28.90;68.50;;;;;;4861028;29;20555;-85
2023/08/19 08:22:00;;;;;;;2.83;2.63;;;28.90;68.50;;;;;;4861220;29;20515;-83
2023/08/19 08:24:28;;;;;;;3.37;3.17;;;28.90;68.60;;;;;;4860868;29;20926;-83
2023/08/19 08:26:58;;;;;;;2.97;2.77;;;28.90;68.60;;;;;;4861007;29;20848;-83
2023/08/19 08:29:26;;;;;;;2.97;2.77;;;28.90;68.60;;;;;;4859352;29;20990;-83
2023/08/19 08:31:54;;;;;;;3.30;3.00;;;28.90;68.60;;;;;;4861435;29;20446;-83
2023/08/19 08:34:23;;;;;;;3.30;3.10;;;28.90;68.70;;;;;;4860842;29;20447;-83
2023/08/19 08:36:51;;;;;;;3.53;3.23;;;29.00;68.60;;;;;;4859464;29;20466;-83
2023/08/19 08:39:19;;;;;;;3.27;3.07;;;28.90;68.70;;;;;;4857563;29;20446;-83
2023/08/19 08:41:47;;;;;;;3.23;3.03;;;28.90;68.70;;;;;;4852505;29;20475;-83
2023/08/19 08:44:18;;;;;;;3.13;2.93;;;29.00;68.60;;;;;;4842013;29;20467;-83
2023/08/19 08:46:49;;;;;;;3.37;3.17;;;28.90;68.60;;;;;;4853673;29;20459;-83
2023/08/19 08:49:18;;;;;;;3.80;3.60;;;28.90;68.70;;;;;;4860600;29;20446;-83
2023/08/19 08:51:47;;;;;;;2.90;2.70;;;28.90;68.70;;;;;;4860385;29;20454;-84
2023/08/19 08:54:16;;;;;;;3.30;3.10;;;28.90;68.70;;;;;;4859952;29;20922;-83
2023/08/19 08:56:44;;;;;;;2.83;2.70;;;28.90;68.70;;;;;;4860778;29;20502;-83
2023/08/19 08:59:13;;;;;;;3.10;2.90;;;28.90;68.70;;;;;;4859165;29;21051;-84
2023/08/19 09:01:46;;;;;;;4.00;3.70;;;28.90;68.70;;;;;;4854859;29;20462;-84
2023/08/19 09:04:15;;;;;;;2.77;2.57;;;28.90;68.70;;;;;;4854266;29;20479;-83
2023/08/19 09:06:46;;;;;;;3.30;3.10;;;28.90;68.60;;;;;;4854450;29;20476;-83
2023/08/19 09:09:15;;;;;;;3.77;3.40;;;28.90;68.60;;;;;;4845235;29;20467;-83
2023/08/19 09:11:46;;;;;;;3.37;3.07;;;28.90;68.60;;;;;;4841836;29;20488;-83
2023/08/19 09:14:22;;;;;;;3.70;3.40;;;28.90;68.70;;;;;;4841549;29;20443;-83
2023/08/19 09:16:52;;;;;;;3.57;3.07;;;28.90;68.60;;;;;;4857255;29;20458;-84
2023/08/19 09:19:20;;;;;;;3.10;3.00;;;28.90;68.60;;;;;;4860043;29;20463;-84
2023/08/19 09:21:48;;;;;;;3.33;3.13;;;28.90;68.70;;;;;;4860329;29;20511;-83
2023/08/19 09:24:17;;;;;;;2.90;2.70;;;28.90;68.60;;;;;;4859647;29;20478;-83
2023/08/19 09:26:45;;;;;;;3.40;3.20;;;28.90;68.60;;;;;;4860105;29;20515;-83
2023/08/19 09:29:14;;;;;;;3.73;3.43;;;28.90;68.60;;;;;;4859924;29;20490;-83
2023/08/19 09:31:42;;;;;;;5.27;3.70;;;28.90;68.60;;;;;;4855461;29;20520;-83
2023/08/19 09:34:15;;;;;;;3.03;2.83;;;28.90;68.60;;;;;;4853620;29;20539;-84
2023/08/19 09:36:43;;;;;;;3.10;2.90;;;28.90;68.60;;;;;;4859699;29;20462;-83
2023/08/19 09:39:12;;;;;;;3.30;3.10;;;28.80;68.60;;;;;;4846246;29;20461;-83
2023/08/19 09:41:40;;;;;;;3.00;2.77;;;28.80;68.60;;;;;;4840550;29;20491;-83
2023/08/19 09:44:13;;;;;;;3.13;2.93;;;28.80;68.60;;;;;;4841542;29;20491;-83
2023/08/19 09:46:42;;;;;;;3.47;3.17;;;28.80;68.70;;;;;;4851629;29;20451;-83
2023/08/19 09:49:21;;;;;;;3.60;3.40;;;28.80;68.70;;;;;;4859590;29;20784;-83
2023/08/19 09:51:54;;;;;;;3.43;3.20;;;28.80;68.70;;;;;;4859690;29;20451;-83
2023/08/19 09:54:24;;;;;;;3.13;2.93;;;28.80;68.70;;;;;;4847057;29;20464;-84
2023/08/19 09:56:55;;;;;;;3.27;3.07;;;28.80;68.70;;;;;;4855062;29;21045;-84
2023/08/19 09:59:23;;;;;;;3.40;3.10;;;28.80;68.60;;;;;;4852115;29;20464;-84
2023/08/19 10:01:52;;;;;;;4.10;3.70;;;28.80;68.60;;;;;;4840790;29;20832;-84
2023/08/19 10:04:22;;;;;;;3.20;3.00;;;28.80;68.60;;;;;;4840188;29;20571;-84
2023/08/19 10:06:52;;;;;;;3.33;3.13;;;28.90;68.60;;;;;;4858835;29;20494;-83
2023/08/19 10:09:24;;;;;;;3.37;3.07;;;28.90;68.60;;;;;;4858624;29;20479;-83
2023/08/19 10:11:54;;;;;;;3.77;3.47;;;28.90;68.60;;;;;;4873903;29;20800;-84
2023/08/19 10:14:28;;;;;;;3.43;3.13;;;28.90;68.60;;;;;;4859241;29;20454;-84
2023/08/19 10:17:00;;;;;;;3.70;3.50;;;28.90;68.60;;;;;;4859006;29;20860;-83
2023/08/19 10:19:32;;;;;;;3.20;3.00;;;28.80;68.60;;;;;;4859567;29;20530;-83
2023/08/19 10:22:01;;;;;;;3.70;3.50;;;28.90;68.60;;;;;;4859132;29;20444;-84
2023/08/19 10:24:30;;;;;;;3.30;3.10;;;28.90;68.60;;;;;;4858526;29;20511;-84
2023/08/19 10:26:58;;;;;;;3.53;3.23;;;28.90;68.60;;;;;;4873870;29;20449;-83
2023/08/19 10:29:27;;;;;;;3.17;2.97;;;28.80;68.60;;;;;;4846354;29;20500;-83
2023/08/19 10:31:55;;;;;;;3.60;3.30;;;28.80;68.60;;;;;;4839541;29;20889;-83
2023/08/19 10:34:27;;;;;;;3.07;2.87;;;28.80;68.60;;;;;;4846770;29;20463;-84
2023/08/19 10:37:10;;;;;;;3.47;3.17;;;28.80;68.60;;;;;;4858784;29;20458;-83
2023/08/19 10:39:38;;;;;;;3.57;3.37;;;28.90;68.60;;;;;;4855989;29;20438;-83
2023/08/19 10:42:07;;;;;;;2.53;2.40;;;28.80;68.60;;;;;;4872438;29;20475;-83
2023/08/19 10:44:37;;;;;;;3.50;3.20;;;28.80;68.60;;;;;;4858508;29;20480;-85
2023/08/19 10:47:10;;;;;;;2.97;2.77;;;28.90;68.60;;;;;;4858996;29;20501;-83
2023/08/19 10:49:38;;;;;;;2.97;2.77;;;28.90;68.60;;;;;;4859203;29;20440;-83
2023/08/19 10:52:08;;;;;;;3.57;3.30;;;28.80;68.60;;;;;;4859243;29;20466;-84
2023/08/19 10:54:39;;;;;;;3.17;2.97;;;28.80;68.70;;;;;;4858051;29;20459;-83
2023/08/19 10:57:09;;;;;;;3.43;3.13;;;28.80;68.70;;;;;;4850732;29;20843;-83
2023/08/19 10:59:38;;;;;;;3.30;3.10;;;28.80;68.70;;;;;;4840520;29;20490;-83
2023/08/19 11:02:08;;;;;;;3.07;2.87;;;28.80;68.80;;;;;;4843666;29;20465;-83
2023/08/19 11:04:40;;;;;;;3.00;2.80;;;28.80;68.80;;;;;;4842506;29;20556;-83
2023/08/19 11:07:10;;;;;;;3.50;3.20;;;28.80;68.90;;;;;;4853338;29;20479;-83
2023/08/19 11:09:42;;;;;;;3.10;2.90;;;28.70;68.90;;;;;;4858263;29;20456;-84
2023/08/19 11:12:11;;;;;;;3.47;3.27;;;28.70;68.90;;;;;;4859121;29;20912;-84
2023/08/19 11:14:39;;;;;;;2.77;2.57;;;28.70;69.00;;;;;;4858836;29;20457;-83
2023/08/19 11:17:07;;;;;;;2.87;2.67;;;28.70;69.00;;;;;;4861175;29;20531;-83
2023/08/19 11:19:36;;;;;;;3.40;3.10;;;28.70;69.00;;;;;;4861851;29;20451;-83
2023/08/19 11:22:04;;;;;;;3.63;3.33;;;28.70;69.00;;;;;;4862167;29;20490;-84
2023/08/19 11:24:36;;;;;;;3.30;3.10;;;28.70;69.00;;;;;;4854050;29;20482;-84
2023/08/19 11:27:04;;;;;;;2.80;2.60;;;28.80;68.90;;;;;;4855863;29;20458;-83
2023/08/19 11:29:33;;;;;;;2.90;2.70;;;28.90;68.80;;;;;;4869966;29;20547;-84
2023/08/19 11:32:01;;;;;;;3.00;2.80;;;28.90;68.70;;;;;;4862433;29;20507;-84
2023/08/19 11:34:30;;;;;;;2.97;2.77;;;29.00;68.50;;;;;;4860634;29;20790;-84
2023/08/19 11:36:58;;;;;;;3.87;3.30;;;29.10;68.40;;;;;;4855239;29;20821;-83
2023/08/19 11:39:32;;;;;;;3.23;3.03;;;29.20;68.10;;;;;;4847664;29;20495;-83
2023/08/19 11:42:03;;;;;;;2.93;2.73;;;29.40;67.80;;;;;;4861834;29;20533;-85
2023/08/19 11:44:32;;;;;;;3.00;2.80;;;29.60;67.30;;;;;;4861679;29;20507;-83
2023/08/19 11:47:00;;;;;;;3.50;3.30;;;29.70;66.80;;;;;;4861949;29;20990;-84
2023/08/19 11:49:32;;;;;;;3.20;3.00;;;29.90;66.40;;;;;;4861435;29;20440;-83
2023/08/19 11:52:00;;;;;;;3.30;3.10;;;30.00;66.10;;;;;;4855913;29;20474;-84
2023/08/19 11:54:29;;;;;;;3.10;2.90;;;30.20;65.80;;;;;;4861117;29;20452;-83
2023/08/19 11:57:02;;;;;;;3.30;3.00;;;30.30;65.50;;;;;;4854508;29;20957;-84
2023/08/19 11:59:32;;;;;;;3.30;3.10;;;30.40;65.30;;;;;;4857637;29;20511;-84
2023/08/19 12:02:05;;;;;;;3.13;2.93;;;30.40;65.10;;;;;;4854460;29;20467;-84
2023/08/19 12:04:33;;;;;;;3.60;3.40;;;30.50;65.00;;;;;;4857817;29;20483;-84
2023/08/19 12:07:04;;;;;;;2.70;2.50;;;30.50;64.90;;;;;;4861317;29;20472;-83
2023/08/19 12:09:33;;;;;;;2.90;2.70;;;30.60;64.80;;;;;;4860880;29;20447;-84
2023/08/19 12:12:09;;;;;;;3.10;2.90;;;30.60;64.70;;;;;;4861161;29;20520;-83
2023/08/19 12:14:37;;;;;;;3.40;3.10;;;30.60;64.60;;;;;;4860728;29;20435;-83
2023/08/19 12:17:06;;;;;;;3.13;2.93;;;30.70;64.50;;;;;;4861403;29;20450;-83
2023/08/19 12:19:35;;;;;;;2.97;2.77;;;30.70;64.40;;;;;;4861058;29;20440;-84
2023/08/19 12:22:04;;;;;;;3.10;2.90;;;30.80;64.30;;;;;;4860086;29;20790;-83
2023/08/19 12:24:33;;;;;;;3.00;2.80;;;30.80;64.20;;;;;;4845509;29;20545;-83
2023/08/19 12:27:02;;;;;;;2.63;2.50;;;30.90;64.10;;;;;;4852984;29;20813;-83
2023/08/19 12:29:31;;;;;;;3.10;2.90;;;30.90;64.00;;;;;;4855154;29;20504;-84
2023/08/19 12:32:00;;;;;;;2.90;2.70;;;31.00;63.90;;;;;;4869510;29;20467;-84
2023/08/19 12:34:29;;;;;;;2.80;2.60;;;31.00;63.80;;;;;;4860675;29;20447;-84
2023/08/19 12:36:57;;;;;;;2.70;2.50;;;31.00;63.80;;;;;;4860928;29;20957;-83
2023/08/19 12:39:27;;;;;;;2.57;2.43;;;31.00;63.70;;;;;;4859829;29;20437;-83
2023/08/19 12:41:56;;;;;;;2.80;2.60;;;31.00;63.70;;;;;;4860782;29;20444;-83
2023/08/19 12:44:25;;;;;;;3.27;3.07;;;31.00;63.70;;;;;;4860944;29;20933;-83
2023/08/19 12:46:53;;;;;;;2.73;2.63;;;30.90;63.80;;;;;;4860159;29;20487;-83
2023/08/19 12:49:22;;;;;;;3.43;3.20;;;30.90;63.90;;;;;;4860653;29;20444;-85
2023/08/19 12:51:50;;;;;;;3.00;2.80;;;30.80;64.00;;;;;;4853038;29;20476;-83
2023/08/19 12:54:18;;;;;;;2.67;2.47;;;30.80;64.10;;;;;;4841408;29;20450;-83
2023/08/19 12:56:46;;;;;;;2.60;2.50;;;30.70;64.30;;;;;;4841898;29;20473;-83
2023/08/19 12:59:14;;;;;;;2.87;2.67;;;30.60;64.40;;;;;;4845549;29;20553;-84